createdAt,value
2023-03-05T00:05:21.626Z,25.4
2023-03-05T00:11:14.599Z,25.5
2023-03-05T00:17:07.084Z,25.1
2023-03-05T00:22:43.902Z,24.9
2023-03-05T00:28:05.446Z,24.8
2023-03-05T00:34:00.790Z,24.6
2023-03-05T00:39:53.705Z,24.5
2023-03-05T00:45:47.305Z,24.7
2023-03-05T00:51:40.318Z,25.1
2023-03-05T00:57:32.681Z,24.8
2023-03-05T01:03:25.975Z,24.6
2023-03-05T01:09:19.165Z,24.4
2023-03-05T01:14:55.318Z,24.3
2023-03-05T01:20:48.677Z,24.2
2023-03-05T01:26:25.554Z,24.2
2023-03-05T01:32:18.481Z,24.6
2023-03-05T01:37:41.974Z,24.6
2023-03-05T01:43:35.260Z,24.4
2023-03-05T01:49:28.411Z,24.2
2023-03-05T01:55:06.236Z,24.1
2023-03-05T02:00:59.038Z,23.9
2023-03-05T02:06:36.278Z,23.9
2023-03-05T02:12:13.427Z,24.2
2023-03-05T02:17:50.483Z,24.4
2023-03-05T02:23:42.846Z,24.1
2023-03-05T02:29:19.121Z,23.8
2023-03-05T02:34:56.901Z,23.6
2023-03-05T02:40:49.566Z,23.5
2023-03-05T02:46:41.742Z,23.4
2023-03-05T02:52:34.820Z,23.7
2023-03-05T02:58:28.277Z,24.3
2023-03-05T03:04:21.795Z,24
2023-03-05T03:09:58.685Z,23.7
2023-03-05T03:15:20.878Z,23.5
2023-03-05T03:21:13.880Z,23.3
2023-03-05T03:26:51.179Z,23.3
2023-03-05T03:32:29.398Z,23.1
2023-03-05T03:38:05.925Z,23.1
2023-03-05T03:43:58.505Z,23.4
2023-03-05T03:49:35.388Z,24.1
2023-03-05T03:55:26.825Z,23.9
2023-03-05T04:01:19.982Z,23.5
2023-03-05T04:07:12.252Z,23.3
2023-03-05T04:13:04.095Z,23.1
2023-03-05T04:18:41.743Z,23
2023-03-05T04:24:18.871Z,22.9
2023-03-05T04:30:11.429Z,23
2023-03-05T04:36:04.978Z,23.4
2023-03-05T04:41:57.238Z,23.9
2023-03-05T04:47:49.396Z,23.6
2023-03-05T04:53:41.801Z,23.3
2023-03-05T04:59:04.869Z,23.1
2023-03-05T05:04:42.296Z,22.9
2023-03-05T05:10:34.801Z,22.9
2023-03-05T05:16:27.578Z,23.2
2023-03-05T05:22:20.995Z,23.9
2023-03-05T05:28:13.665Z,23.6
2023-03-05T05:34:06.736Z,23.3
2023-03-05T05:39:59.289Z,23.1
2023-03-05T05:45:52.624Z,22.9
2023-03-05T05:51:45.832Z,22.8
2023-03-05T05:57:22.919Z,22.6
2023-03-05T06:03:16.572Z,22.8
2023-03-05T06:09:11.385Z,23.3
2023-03-05T06:15:04.667Z,23.8
2023-03-05T06:21:05.870Z,23.4
2023-03-05T06:26:57.740Z,23.1
2023-03-05T06:32:50.803Z,22.9
2023-03-05T06:38:43.448Z,22.7
2023-03-05T06:44:36.862Z,22.7
2023-03-05T06:50:13.888Z,23.1
2023-03-05T06:56:07.593Z,23.7
2023-03-05T07:02:01.498Z,23.6
2023-03-05T07:07:53.523Z,23.1
2023-03-05T07:13:48.751Z,22.9
2023-03-05T07:19:42.255Z,22.8
2023-03-05T07:25:34.577Z,22.6
2023-03-05T07:31:28.337Z,22.9
2023-03-05T07:37:21.238Z,23.6
2023-03-05T07:42:58.890Z,23.5
2023-03-05T07:48:52.389Z,23.3
2023-03-05T07:54:30.407Z,23.1
2023-03-05T08:00:24.348Z,23.1
2023-03-05T08:06:18.398Z,22.9
2023-03-05T08:12:11.694Z,22.8
2023-03-05T08:18:04.701Z,23.3
2023-03-05T08:23:42.403Z,23.5
2023-03-05T08:29:36.334Z,23.2
2023-03-05T08:35:30.597Z,23.1
2023-03-05T08:41:24.436Z,23
2023-03-05T08:47:17.761Z,22.9
2023-03-05T08:53:10.792Z,22.8
2023-03-05T08:59:03.796Z,23.2
2023-03-05T09:04:41.859Z,23.5
2023-03-05T09:10:33.978Z,23.3
2023-03-05T09:16:26.808Z,23.1
2023-03-05T09:22:20.568Z,23
2023-03-05T09:28:14.499Z,22.9
2023-03-05T09:34:08.442Z,22.9
2023-03-05T09:40:01.958Z,22.9
2023-03-05T09:45:54.621Z,23.6
2023-03-05T09:51:47.887Z,23.5
2023-03-05T09:57:39.944Z,23.3
2023-03-05T10:03:32.459Z,23
2023-03-05T10:09:25.090Z,23.2
2023-03-05T10:15:18.296Z,23.7
2023-03-05T10:20:56.107Z,23.4
2023-03-05T10:26:33.208Z,23.2
2023-03-05T10:32:26.242Z,23.1
2023-03-05T10:38:20.616Z,23.5
2023-03-05T10:44:13.658Z,23.7
2023-03-05T10:50:06.792Z,23.4
2023-03-05T10:55:44.418Z,23.2
2023-03-05T11:01:37.579Z,23.1
2023-03-05T11:07:33.458Z,23.8
2023-03-05T11:13:10.841Z,23.6
2023-03-05T11:19:06.269Z,23.4
2023-03-05T11:25:01.478Z,23.3
2023-03-05T11:31:01.186Z,23.3
2023-03-05T11:36:39.476Z,23.8
2023-03-05T11:42:32.638Z,23.6
2023-03-05T11:48:27.086Z,23.3
2023-03-05T11:54:21.787Z,23.2
2023-03-05T12:00:15.948Z,23.6
2023-03-05T12:05:56.602Z,23.8
2023-03-05T12:11:49.153Z,23.5
2023-03-05T12:17:43.463Z,23.3
2023-03-05T12:23:04.806Z,23.3
2023-03-05T12:28:58.758Z,23.9
2023-03-05T12:34:55.819Z,23.6
2023-03-05T12:41:11.008Z,23.4
2023-03-05T12:46:49.751Z,23.3
2023-03-05T12:52:28.251Z,23.4
2023-03-05T12:58:07.564Z,23.9
2023-03-05T13:03:45.741Z,23.7
2023-03-05T13:09:39.021Z,23.4
2023-03-05T13:15:33.721Z,23.3
2023-03-05T13:21:26.911Z,23.4
2023-03-05T13:27:20.636Z,23.9
2023-03-05T13:33:14.073Z,23.6
2023-03-05T13:39:17.213Z,23.4
2023-03-05T13:45:12.156Z,23.3
2023-03-05T13:51:06.289Z,23.2
2023-03-05T13:56:59.580Z,23.3
2023-03-05T14:02:58.656Z,23.9
2023-03-05T14:08:53.828Z,23.6
2023-03-05T14:14:47.593Z,23.4
2023-03-05T14:19:53.930Z,23.2
2023-03-05T14:25:54.664Z,23.1
2023-03-05T14:31:49.261Z,23.4
2023-03-05T14:37:43.044Z,23.8
2023-03-05T14:43:06.127Z,23.4
2023-03-05T14:48:42.747Z,23.3
2023-03-05T14:54:04.285Z,23.2
2023-03-05T14:59:56.870Z,23.1
2023-03-05T15:05:52.389Z,23.2
2023-03-05T15:11:45.282Z,23.8
2023-03-05T15:17:38.652Z,23.5
2023-03-05T15:23:00.879Z,23.3
2023-03-05T15:28:39.392Z,23.2
2023-03-05T15:34:04.374Z,23
2023-03-05T15:39:26.071Z,23.1
2023-03-05T15:45:03.520Z,23.6
2023-03-05T15:50:42.767Z,23.6
2023-03-05T15:56:19.147Z,23.3
2023-03-05T16:01:57.361Z,23.1
2023-03-05T16:07:33.783Z,23.1
2023-03-05T16:13:12.877Z,22.9
2023-03-05T16:18:52.101Z,23.2
2023-03-05T16:24:28.499Z,23.6
2023-03-05T16:30:05.642Z,23.3
2023-03-05T16:35:43.488Z,23.1
2023-03-05T16:41:30.907Z,23.1
2023-03-05T16:47:09.044Z,22.9
2023-03-05T16:52:35.646Z,22.8
2023-03-05T16:58:15.214Z,23.1
2023-03-05T17:03:57.207Z,23.5
2023-03-05T17:09:35.381Z,23.1
2023-03-05T17:15:12.412Z,22.8
2023-03-05T17:20:50.854Z,22.5
2023-03-05T17:26:29.921Z,22.3
2023-03-05T17:32:07.778Z,22.2
2023-03-05T17:37:55.635Z,22.3
2023-03-05T17:43:48.340Z,22.9
2023-03-05T17:49:25.359Z,22.8
2023-03-05T17:55:17.737Z,22.6
2023-03-05T18:01:12.605Z,22.4
2023-03-05T18:06:49.789Z,22.3
2023-03-05T18:12:27.865Z,22.1
2023-03-05T18:18:21.870Z,22.1
2023-03-05T18:24:16.822Z,22.9
2023-03-05T18:30:09.741Z,22.8
2023-03-05T18:36:02.625Z,22.6
2023-03-05T18:41:44.558Z,22.4
2023-03-05T18:47:22.826Z,22.3
2023-03-05T18:53:17.001Z,22.1
2023-03-05T18:59:08.976Z,22.1
2023-03-05T19:05:02.453Z,22.9
2023-03-05T19:10:40.944Z,22.9
2023-03-05T19:16:19.117Z,22.5
2023-03-05T19:22:12.274Z,22.2
2023-03-05T19:28:04.805Z,22
2023-03-05T19:33:57.980Z,21.8
2023-03-05T19:39:51.195Z,21.9
2023-03-05T19:45:44.562Z,22.4
2023-03-05T19:51:40.688Z,23.1
2023-03-05T19:56:48.010Z,22.8
2023-03-05T20:02:42.212Z,22.4
2023-03-05T20:08:19.757Z,22.2
2023-03-05T20:14:14.246Z,22
2023-03-05T20:20:07.979Z,21.9
2023-03-05T20:26:05.161Z,22.1
2023-03-05T20:31:46.928Z,22.8
2023-03-05T20:37:41.165Z,23
2023-03-05T20:43:19.523Z,22.6
2023-03-05T20:48:58.040Z,22.3
2023-03-05T20:54:36.861Z,22.1
2023-03-05T20:59:59.424Z,21.9
2023-03-05T21:05:07.162Z,22
2023-03-05T21:10:45.854Z,22.3
2023-03-05T21:16:39.493Z,22.9
2023-03-05T21:22:19.228Z,23.1
2023-03-05T21:28:13.007Z,22.7
2023-03-05T21:33:50.172Z,22.4
2023-03-05T21:39:30.275Z,22.2
2023-03-05T21:45:23.259Z,22
2023-03-05T21:51:15.704Z,22.1
2023-03-05T21:57:09.135Z,22.4
2023-03-05T22:02:46.195Z,23.1
2023-03-05T22:08:22.726Z,23.3
2023-03-05T22:14:15.130Z,23.5
2023-03-05T22:19:53.401Z,23.3
2023-03-05T22:25:46.127Z,22.8
2023-03-05T22:31:23.666Z,22.5
2023-03-05T22:37:16.992Z,22.3
2023-03-05T22:42:38.820Z,22.1
2023-03-05T22:48:30.889Z,22.3
2023-03-05T22:54:23.890Z,22.9
2023-03-05T22:59:44.965Z,23.3
2023-03-05T23:05:23.154Z,23.1
2023-03-05T23:11:16.661Z,22.6
2023-03-05T23:16:38.361Z,22.4
2023-03-05T23:22:15.030Z,22.2
2023-03-05T23:27:52.439Z,22.1
2023-03-05T23:33:30.419Z,22.3
2023-03-05T23:39:08.099Z,22.9
2023-03-05T23:44:30.562Z,23.4
2023-03-05T23:50:23.292Z,23.1
2023-03-05T23:55:48.553Z,22.7
